sensor_id;sensor_type;location;lat;lon;timestamp;P1;durP1;ratioP1;P2;durP2;ratioP2
16975;SDS011;8604;48.148;-1.786;2023-07-29T00:01:50;2.10;;;1.10;;
16975;SDS011;8604;48.148;-1.786;2023-07-29T00:04:20;5.97;;;1.40;;
16975;SDS011;8604;48.148;-1.786;2023-07-29T00:06:50;4.50;;;1.60;;
16975;SDS011;8604;48.148;-1.786;2023-07-29T00:09:18;3.13;;;1.30;;
16975;SDS011;8604;48.148;-1.786;2023-07-29T00:11:46;4.23;;;1.30;;
16975;SDS011;8604;48.148;-1.786;2023-07-29T00:14:15;2.60;;;1.33;;
16975;SDS011;8604;48.148;-1.786;2023-07-29T00:16:43;5.20;;;1.60;;
16975;SDS011;8604;48.148;-1.786;2023-07-29T00:19:11;4.70;;;1.40;;
16975;SDS011;8604;48.148;-1.786;2023-07-29T00:21:40;3.60;;;1.30;;
16975;SDS011;8604;48.148;-1.786;2023-07-29T00:24:10;2.70;;;1.20;;
16975;SDS011;8604;48.148;-1.786;2023-07-29T00:26:38;6.57;;;1.70;;
16975;SDS011;8604;48.148;-1.786;2023-07-29T00:29:06;5.73;;;1.60;;
16975;SDS011;8604;48.148;-1.786;2023-07-29T00:31:35;3.50;;;1.50;;
16975;SDS011;8604;48.148;-1.786;2023-07-29T00:34:03;4.27;;;1.57;;
16975;SDS011;8604;48.148;-1.786;2023-07-29T00:36:31;4.63;;;1.50;;
16975;SDS011;8604;48.148;-1.786;2023-07-29T00:39:00;4.43;;;1.70;;
16975;SDS011;8604;48.148;-1.786;2023-07-29T00:41:30;3.70;;;1.40;;
16975;SDS011;8604;48.148;-1.786;2023-07-29T00:43:58;5.70;;;1.73;;
16975;SDS011;8604;48.148;-1.786;2023-07-29T00:46:29;4.03;;;1.60;;
16975;SDS011;8604;48.148;-1.786;2023-07-29T00:48:59;4.83;;;1.30;;
16975;SDS011;8604;48.148;-1.786;2023-07-29T00:51:28;3.13;;;1.50;;
16975;SDS011;8604;48.148;-1.786;2023-07-29T00:53:56;9.10;;;2.00;;
16975;SDS011;8604;48.148;-1.786;2023-07-29T00:56:25;4.77;;;1.60;;
16975;SDS011;8604;48.148;-1.786;2023-07-29T00:58:55;4.57;;;1.60;;
16975;SDS011;8604;48.148;-1.786;2023-07-29T01:01:28;5.67;;;1.70;;
16975;SDS011;8604;48.148;-1.786;2023-07-29T01:03:57;3.97;;;1.60;;
16975;SDS011;8604;48.148;-1.786;2023-07-29T01:06:27;6.07;;;1.70;;
16975;SDS011;8604;48.148;-1.786;2023-07-29T01:09:02;2.83;;;1.60;;
16975;SDS011;8604;48.148;-1.786;2023-07-29T01:11:38;3.83;;;1.60;;
16975;SDS011;8604;48.148;-1.786;2023-07-29T01:14:19;6.03;;;1.73;;
16975;SDS011;8604;48.148;-1.786;2023-07-29T01:16:55;6.97;;;1.60;;
16975;SDS011;8604;48.148;-1.786;2023-07-29T01:19:34;3.87;;;1.53;;
16975;SDS011;8604;48.148;-1.786;2023-07-29T01:22:11;4.03;;;1.50;;
16975;SDS011;8604;48.148;-1.786;2023-07-29T01:24:42;5.17;;;1.80;;
16975;SDS011;8604;48.148;-1.786;2023-07-29T01:27:10;6.77;;;1.50;;
16975;SDS011;8604;48.148;-1.786;2023-07-29T01:29:40;4.73;;;1.60;;
16975;SDS011;8604;48.148;-1.786;2023-07-29T01:32:10;7.30;;;2.00;;
16975;SDS011;8604;48.148;-1.786;2023-07-29T01:34:45;2.10;;;1.50;;
16975;SDS011;8604;48.148;-1.786;2023-07-29T01:37:21;7.93;;;1.73;;
16975;SDS011;8604;48.148;-1.786;2023-07-29T01:39:55;4.60;;;1.50;;
16975;SDS011;8604;48.148;-1.786;2023-07-29T01:42:26;5.17;;;1.60;;
16975;SDS011;8604;48.148;-1.786;2023-07-29T01:44:56;3.67;;;1.53;;
16975;SDS011;8604;48.148;-1.786;2023-07-29T01:47:24;4.00;;;1.80;;
16975;SDS011;8604;48.148;-1.786;2023-07-29T01:49:54;6.33;;;1.70;;
16975;SDS011;8604;48.148;-1.786;2023-07-29T01:52:22;7.40;;;1.97;;
16975;SDS011;8604;48.148;-1.786;2023-07-29T01:54:50;5.63;;;1.73;;
16975;SDS011;8604;48.148;-1.786;2023-07-29T01:57:21;4.57;;;1.87;;
16975;SDS011;8604;48.148;-1.786;2023-07-29T01:59:49;5.43;;;1.90;;
16975;SDS011;8604;48.148;-1.786;2023-07-29T02:02:18;7.07;;;1.80;;
16975;SDS011;8604;48.148;-1.786;2023-07-29T02:04:46;5.20;;;1.80;;
16975;SDS011;8604;48.148;-1.786;2023-07-29T02:07:18;5.70;;;2.00;;
16975;SDS011;8604;48.148;-1.786;2023-07-29T02:09:46;6.03;;;1.90;;
16975;SDS011;8604;48.148;-1.786;2023-07-29T02:12:14;3.97;;;1.77;;
16975;SDS011;8604;48.148;-1.786;2023-07-29T02:14:44;4.93;;;1.70;;
16975;SDS011;8604;48.148;-1.786;2023-07-29T02:17:12;4.87;;;1.80;;
16975;SDS011;8604;48.148;-1.786;2023-07-29T02:19:41;3.07;;;1.63;;
16975;SDS011;8604;48.148;-1.786;2023-07-29T02:22:10;3.53;;;1.73;;
16975;SDS011;8604;48.148;-1.786;2023-07-29T02:24:40;5.37;;;2.00;;
16975;SDS011;8604;48.148;-1.786;2023-07-29T02:27:09;5.57;;;1.90;;
16975;SDS011;8604;48.148;-1.786;2023-07-29T02:29:37;7.87;;;1.90;;
16975;SDS011;8604;48.148;-1.786;2023-07-29T02:32:07;4.20;;;1.80;;
16975;SDS011;8604;48.148;-1.786;2023-07-29T02:34:35;7.03;;;2.00;;
16975;SDS011;8604;48.148;-1.786;2023-07-29T02:37:04;5.10;;;1.70;;
16975;SDS011;8604;48.148;-1.786;2023-07-29T02:39:32;5.43;;;2.13;;
16975;SDS011;8604;48.148;-1.786;2023-07-29T02:42:00;5.60;;;2.10;;
16975;SDS011;8604;48.148;-1.786;2023-07-29T02:44:29;5.07;;;1.80;;
16975;SDS011;8604;48.148;-1.786;2023-07-29T02:46:57;7.77;;;2.30;;
16975;SDS011;8604;48.148;-1.786;2023-07-29T02:49:27;6.27;;;2.10;;
16975;SDS011;8604;48.148;-1.786;2023-07-29T02:51:55;3.53;;;1.90;;
16975;SDS011;8604;48.148;-1.786;2023-07-29T02:54:24;4.30;;;1.60;;
16975;SDS011;8604;48.148;-1.786;2023-07-29T02:56:52;4.30;;;1.97;;
16975;SDS011;8604;48.148;-1.786;2023-07-29T02:59:22;7.80;;;2.00;;
16975;SDS011;8604;48.148;-1.786;2023-07-29T03:01:51;5.67;;;1.70;;
16975;SDS011;8604;48.148;-1.786;2023-07-29T03:04:20;6.23;;;1.97;;
16975;SDS011;8604;48.148;-1.786;2023-07-29T03:06:51;5.03;;;1.90;;
16975;SDS011;8604;48.148;-1.786;2023-07-29T03:09:20;4.73;;;1.83;;
16975;SDS011;8604;48.148;-1.786;2023-07-29T03:11:48;7.50;;;2.07;;
16975;SDS011;8604;48.148;-1.786;2023-07-29T03:14:17;4.70;;;1.97;;
16975;SDS011;8604;48.148;-1.786;2023-07-29T03:16:45;4.70;;;2.10;;
16975;SDS011;8604;48.148;-1.786;2023-07-29T03:19:14;4.17;;;1.73;;
16975;SDS011;8604;48.148;-1.786;2023-07-29T03:21:43;4.83;;;1.80;;
16975;SDS011;8604;48.148;-1.786;2023-07-29T03:24:13;4.87;;;1.80;;
16975;SDS011;8604;48.148;-1.786;2023-07-29T03:26:42;6.10;;;2.10;;
16975;SDS011;8604;48.148;-1.786;2023-07-29T03:29:12;5.60;;;2.10;;
16975;SDS011;8604;48.148;-1.786;2023-07-29T03:31:40;5.57;;;1.80;;
16975;SDS011;8604;48.148;-1.786;2023-07-29T03:34:09;6.17;;;1.80;;
16975;SDS011;8604;48.148;-1.786;2023-07-29T03:36:41;4.20;;;1.70;;
16975;SDS011;8604;48.148;-1.786;2023-07-29T03:39:10;4.67;;;1.90;;
16975;SDS011;8604;48.148;-1.786;2023-07-29T03:41:39;5.70;;;1.73;;
16975;SDS011;8604;48.148;-1.786;2023-07-29T03:44:08;6.30;;;1.90;;
16975;SDS011;8604;48.148;-1.786;2023-07-29T03:46:36;5.73;;;1.90;;
16975;SDS011;8604;48.148;-1.786;2023-07-29T03:49:07;4.77;;;2.07;;
16975;SDS011;8604;48.148;-1.786;2023-07-29T03:51:36;5.57;;;2.10;;
16975;SDS011;8604;48.148;-1.786;2023-07-29T03:54:06;5.23;;;2.00;;
16975;SDS011;8604;48.148;-1.786;2023-07-29T03:56:35;5.63;;;1.90;;
16975;SDS011;8604;48.148;-1.786;2023-07-29T03:59:05;5.10;;;2.20;;
16975;SDS011;8604;48.148;-1.786;2023-07-29T04:01:33;6.40;;;2.20;;
16975;SDS011;8604;48.148;-1.786;2023-07-29T04:04:02;6.40;;;2.00;;
16975;SDS011;8604;48.148;-1.786;2023-07-29T04:06:31;13.30;;;2.83;;
16975;SDS011;8604;48.148;-1.786;2023-07-29T04:09:00;6.80;;;2.30;;
16975;SDS011;8604;48.148;-1.786;2023-07-29T04:11:29;5.40;;;2.03;;
16975;SDS011;8604;48.148;-1.786;2023-07-29T04:13:57;6.97;;;2.40;;
16975;SDS011;8604;48.148;-1.786;2023-07-29T04:16:27;7.93;;;2.37;;
16975;SDS011;8604;48.148;-1.786;2023-07-29T04:18:56;6.73;;;2.30;;
16975;SDS011;8604;48.148;-1.786;2023-07-29T04:21:24;5.03;;;2.40;;
16975;SDS011;8604;48.148;-1.786;2023-07-29T04:23:53;7.23;;;2.47;;
16975;SDS011;8604;48.148;-1.786;2023-07-29T04:26:21;5.17;;;2.17;;
16975;SDS011;8604;48.148;-1.786;2023-07-29T04:28:49;5.10;;;2.43;;
16975;SDS011;8604;48.148;-1.786;2023-07-29T04:31:18;4.20;;;2.00;;
16975;SDS011;8604;48.148;-1.786;2023-07-29T04:33:47;4.13;;;2.20;;
16975;SDS011;8604;48.148;-1.786;2023-07-29T04:36:16;8.17;;;2.20;;
16975;SDS011;8604;48.148;-1.786;2023-07-29T04:38:45;6.77;;;2.20;;
16975;SDS011;8604;48.148;-1.786;2023-07-29T04:41:13;7.40;;;2.77;;
16975;SDS011;8604;48.148;-1.786;2023-07-29T04:43:41;6.33;;;2.17;;
16975;SDS011;8604;48.148;-1.786;2023-07-29T04:46:10;6.87;;;1.97;;
16975;SDS011;8604;48.148;-1.786;2023-07-29T04:48:38;9.67;;;2.27;;
16975;SDS011;8604;48.148;-1.786;2023-07-29T04:51:08;7.50;;;2.57;;
16975;SDS011;8604;48.148;-1.786;2023-07-29T04:53:38;6.40;;;2.03;;
16975;SDS011;8604;48.148;-1.786;2023-07-29T04:56:07;7.03;;;2.10;;
16975;SDS011;8604;48.148;-1.786;2023-07-29T04:58:35;3.70;;;2.00;;
16975;SDS011;8604;48.148;-1.786;2023-07-29T05:01:04;4.80;;;1.83;;
16975;SDS011;8604;48.148;-1.786;2023-07-29T05:03:32;6.90;;;2.10;;
16975;SDS011;8604;48.148;-1.786;2023-07-29T05:06:01;5.00;;;1.80;;
16975;SDS011;8604;48.148;-1.786;2023-07-29T05:08:31;6.43;;;2.20;;
16975;SDS011;8604;48.148;-1.786;2023-07-29T05:10:59;4.77;;;2.00;;
16975;SDS011;8604;48.148;-1.786;2023-07-29T05:13:27;5.93;;;2.00;;
16975;SDS011;8604;48.148;-1.786;2023-07-29T05:15:56;6.03;;;1.80;;
16975;SDS011;8604;48.148;-1.786;2023-07-29T05:18:24;4.00;;;1.60;;
16975;SDS011;8604;48.148;-1.786;2023-07-29T05:20:53;6.40;;;1.90;;
16975;SDS011;8604;48.148;-1.786;2023-07-29T05:23:23;5.47;;;1.70;;
16975;SDS011;8604;48.148;-1.786;2023-07-29T05:25:53;2.83;;;1.60;;
16975;SDS011;8604;48.148;-1.786;2023-07-29T05:28:22;4.17;;;1.70;;
16975;SDS011;8604;48.148;-1.786;2023-07-29T05:30:50;6.83;;;1.90;;
16975;SDS011;8604;48.148;-1.786;2023-07-29T05:33:19;3.67;;;1.63;;
16975;SDS011;8604;48.148;-1.786;2023-07-29T05:35:48;4.27;;;1.77;;
16975;SDS011;8604;48.148;-1.786;2023-07-29T05:38:16;5.37;;;2.13;;
16975;SDS011;8604;48.148;-1.786;2023-07-29T05:40:44;3.63;;;1.50;;
16975;SDS011;8604;48.148;-1.786;2023-07-29T05:43:14;4.43;;;1.70;;
16975;SDS011;8604;48.148;-1.786;2023-07-29T05:45:42;4.53;;;1.73;;
16975;SDS011;8604;48.148;-1.786;2023-07-29T05:48:11;5.30;;;2.03;;
16975;SDS011;8604;48.148;-1.786;2023-07-29T05:50:41;5.73;;;1.60;;
16975;SDS011;8604;48.148;-1.786;2023-07-29T05:53:09;5.30;;;1.70;;
16975;SDS011;8604;48.148;-1.786;2023-07-29T05:55:37;3.53;;;1.60;;
16975;SDS011;8604;48.148;-1.786;2023-07-29T05:58:20;3.97;;;1.80;;
16975;SDS011;8604;48.148;-1.786;2023-07-29T06:01:03;4.70;;;1.60;;
16975;SDS011;8604;48.148;-1.786;2023-07-29T06:03:32;3.43;;;1.50;;
16975;SDS011;8604;48.148;-1.786;2023-07-29T06:06:00;4.93;;;1.63;;
16975;SDS011;8604;48.148;-1.786;2023-07-29T06:08:29;4.57;;;1.67;;
16975;SDS011;8604;48.148;-1.786;2023-07-29T06:11:00;3.20;;;1.60;;
16975;SDS011;8604;48.148;-1.786;2023-07-29T06:13:30;2.97;;;1.47;;
16975;SDS011;8604;48.148;-1.786;2023-07-29T06:16:07;3.20;;;1.30;;
16975;SDS011;8604;48.148;-1.786;2023-07-29T06:18:56;4.63;;;1.40;;
16975;SDS011;8604;48.148;-1.786;2023-07-29T06:21:30;4.50;;;1.73;;
16975;SDS011;8604;48.148;-1.786;2023-07-29T06:24:18;5.07;;;1.57;;
16975;SDS011;8604;48.148;-1.786;2023-07-29T06:27:10;3.70;;;1.53;;
16975;SDS011;8604;48.148;-1.786;2023-07-29T06:29:47;2.07;;;1.40;;
16975;SDS011;8604;48.148;-1.786;2023-07-29T06:32:29;3.70;;;1.50;;
16975;SDS011;8604;48.148;-1.786;2023-07-29T06:35:39;4.80;;;1.50;;
16975;SDS011;8604;48.148;-1.786;2023-07-29T06:38:08;3.83;;;1.60;;
16975;SDS011;8604;48.148;-1.786;2023-07-29T06:40:37;5.73;;;1.50;;
16975;SDS011;8604;48.148;-1.786;2023-07-29T06:43:05;3.80;;;1.57;;
16975;SDS011;8604;48.148;-1.786;2023-07-29T06:45:35;2.43;;;1.27;;
16975;SDS011;8604;48.148;-1.786;2023-07-29T06:48:44;2.40;;;1.30;;
16975;SDS011;8604;48.148;-1.786;2023-07-29T06:51:12;3.53;;;1.50;;
16975;SDS011;8604;48.148;-1.786;2023-07-29T06:53:41;3.47;;;1.40;;
16975;SDS011;8604;48.148;-1.786;2023-07-29T06:56:09;2.57;;;1.40;;
16975;SDS011;8604;48.148;-1.786;2023-07-29T06:58:38;3.90;;;1.60;;
16975;SDS011;8604;48.148;-1.786;2023-07-29T07:01:07;2.67;;;1.50;;
16975;SDS011;8604;48.148;-1.786;2023-07-29T07:03:36;3.63;;;1.53;;
16975;SDS011;8604;48.148;-1.786;2023-07-29T07:06:05;2.60;;;1.40;;
16975;SDS011;8604;48.148;-1.786;2023-07-29T07:08:33;3.40;;;1.40;;
16975;SDS011;8604;48.148;-1.786;2023-07-29T07:11:01;4.53;;;1.40;;
16975;SDS011;8604;48.148;-1.786;2023-07-29T07:13:29;2.37;;;1.20;;
16975;SDS011;8604;48.148;-1.786;2023-07-29T07:15:58;3.07;;;1.50;;
16975;SDS011;8604;48.148;-1.786;2023-07-29T07:18:28;3.57;;;1.27;;
16975;SDS011;8604;48.148;-1.786;2023-07-29T07:20:56;2.27;;;1.50;;
16975;SDS011;8604;48.148;-1.786;2023-07-29T07:23:24;2.30;;;1.50;;
16975;SDS011;8604;48.148;-1.786;2023-07-29T07:25:53;2.60;;;1.50;;
16975;SDS011;8604;48.148;-1.786;2023-07-29T07:28:22;3.33;;;1.33;;
16975;SDS011;8604;48.148;-1.786;2023-07-29T07:30:51;3.50;;;1.70;;
16975;SDS011;8604;48.148;-1.786;2023-07-29T07:33:19;3.70;;;1.70;;
16975;SDS011;8604;48.148;-1.786;2023-07-29T07:35:49;4.10;;;1.60;;
16975;SDS011;8604;48.148;-1.786;2023-07-29T07:38:23;4.23;;;1.70;;
16975;SDS011;8604;48.148;-1.786;2023-07-29T07:40:54;3.80;;;1.50;;
16975;SDS011;8604;48.148;-1.786;2023-07-29T07:43:24;4.30;;;1.60;;
16975;SDS011;8604;48.148;-1.786;2023-07-29T07:46:23;2.40;;;1.40;;
16975;SDS011;8604;48.148;-1.786;2023-07-29T07:48:52;4.53;;;1.80;;
16975;SDS011;8604;48.148;-1.786;2023-07-29T07:51:23;2.07;;;1.50;;
16975;SDS011;8604;48.148;-1.786;2023-07-29T08:23:39;4.70;;;1.77;;
16975;SDS011;8604;48.148;-1.786;2023-07-29T08:26:08;3.05;;;1.48;;
16975;SDS011;8604;48.148;-1.786;2023-07-29T08:28:37;3.40;;;1.63;;
16975;SDS011;8604;48.148;-1.786;2023-07-29T08:31:06;2.88;;;1.60;;
16975;SDS011;8604;48.148;-1.786;2023-07-29T08:33:35;3.40;;;1.40;;
16975;SDS011;8604;48.148;-1.786;2023-07-29T08:36:04;4.60;;;1.50;;
16975;SDS011;8604;48.148;-1.786;2023-07-29T08:38:33;2.00;;;1.48;;
16975;SDS011;8604;48.148;-1.786;2023-07-29T08:41:06;4.35;;;1.60;;
16975;SDS011;8604;48.148;-1.786;2023-07-29T08:43:43;2.33;;;1.40;;
16975;SDS011;8604;48.148;-1.786;2023-07-29T08:46:16;2.45;;;1.45;;
16975;SDS011;8604;48.148;-1.786;2023-07-29T08:48:47;5.22;;;1.70;;
16975;SDS011;8604;48.148;-1.786;2023-07-29T08:51:15;2.63;;;1.60;;
16975;SDS011;8604;48.148;-1.786;2023-07-29T08:53:47;2.03;;;1.52;;
16975;SDS011;8604;48.148;-1.786;2023-07-29T08:56:18;2.85;;;1.50;;
16975;SDS011;8604;48.148;-1.786;2023-07-29T08:58:47;5.15;;;1.70;;
16975;SDS011;8604;48.148;-1.786;2023-07-29T09:01:16;2.83;;;1.60;;
16975;SDS011;8604;48.148;-1.786;2023-07-29T09:03:45;3.63;;;1.70;;
16975;SDS011;8604;48.148;-1.786;2023-07-29T09:06:13;2.75;;;1.55;;
16975;SDS011;8604;48.148;-1.786;2023-07-29T09:08:43;3.45;;;1.60;;
16975;SDS011;8604;48.148;-1.786;2023-07-29T09:11:13;2.60;;;1.48;;
16975;SDS011;8604;48.148;-1.786;2023-07-29T09:13:45;2.88;;;1.65;;
16975;SDS011;8604;48.148;-1.786;2023-07-29T09:16:13;3.58;;;1.50;;
16975;SDS011;8604;48.148;-1.786;2023-07-29T09:18:42;4.40;;;1.73;;
16975;SDS011;8604;48.148;-1.786;2023-07-29T09:21:11;2.60;;;1.40;;
16975;SDS011;8604;48.148;-1.786;2023-07-29T09:23:40;2.85;;;1.70;;
16975;SDS011;8604;48.148;-1.786;2023-07-29T09:26:09;3.35;;;1.70;;
16975;SDS011;8604;48.148;-1.786;2023-07-29T09:28:38;2.97;;;1.55;;
16975;SDS011;8604;48.148;-1.786;2023-07-29T09:31:13;3.90;;;1.73;;
16975;SDS011;8604;48.148;-1.786;2023-07-29T09:33:47;3.00;;;1.70;;
16975;SDS011;8604;48.148;-1.786;2023-07-29T09:36:16;2.95;;;1.60;;
16975;SDS011;8604;48.148;-1.786;2023-07-29T09:38:44;2.88;;;1.55;;
16975;SDS011;8604;48.148;-1.786;2023-07-29T09:41:13;2.85;;;1.60;;
16975;SDS011;8604;48.148;-1.786;2023-07-29T09:43:43;2.38;;;1.50;;
16975;SDS011;8604;48.148;-1.786;2023-07-29T09:46:13;2.75;;;1.65;;
16975;SDS011;8604;48.148;-1.786;2023-07-29T09:48:42;4.57;;;1.90;;
16975;SDS011;8604;48.148;-1.786;2023-07-29T09:51:14;3.55;;;1.65;;
16975;SDS011;8604;48.148;-1.786;2023-07-29T09:53:44;5.68;;;1.90;;
16975;SDS011;8604;48.148;-1.786;2023-07-29T09:56:15;4.50;;;1.95;;
16975;SDS011;8604;48.148;-1.786;2023-07-29T09:58:44;2.90;;;1.60;;
16975;SDS011;8604;48.148;-1.786;2023-07-29T10:01:14;2.17;;;1.60;;
16975;SDS011;8604;48.148;-1.786;2023-07-29T10:03:44;3.42;;;1.65;;
16975;SDS011;8604;48.148;-1.786;2023-07-29T10:06:14;4.55;;;2.03;;
16975;SDS011;8604;48.148;-1.786;2023-07-29T10:08:43;3.85;;;1.73;;
16975;SDS011;8604;48.148;-1.786;2023-07-29T10:11:12;4.07;;;1.63;;
16975;SDS011;8604;48.148;-1.786;2023-07-29T10:13:41;2.75;;;1.50;;
16975;SDS011;8604;48.148;-1.786;2023-07-29T10:16:27;4.68;;;2.00;;
16975;SDS011;8604;48.148;-1.786;2023-07-29T10:18:56;3.97;;;1.90;;
16975;SDS011;8604;48.148;-1.786;2023-07-29T10:21:26;5.28;;;1.70;;
16975;SDS011;8604;48.148;-1.786;2023-07-29T10:24:01;3.03;;;1.73;;
16975;SDS011;8604;48.148;-1.786;2023-07-29T10:26:35;4.35;;;1.70;;
16975;SDS011;8604;48.148;-1.786;2023-07-29T10:29:11;3.15;;;2.08;;
16975;SDS011;8604;48.148;-1.786;2023-07-29T10:31:42;3.15;;;1.73;;
16975;SDS011;8604;48.148;-1.786;2023-07-29T10:34:12;4.38;;;2.00;;
16975;SDS011;8604;48.148;-1.786;2023-07-29T10:36:41;4.25;;;1.70;;
16975;SDS011;8604;48.148;-1.786;2023-07-29T10:39:10;3.67;;;2.03;;
16975;SDS011;8604;48.148;-1.786;2023-07-29T10:41:55;4.13;;;1.70;;
16975;SDS011;8604;48.148;-1.786;2023-07-29T10:47:19;3.85;;;1.80;;
16975;SDS011;8604;48.148;-1.786;2023-07-29T10:49:50;3.20;;;1.80;;
16975;SDS011;8604;48.148;-1.786;2023-07-29T10:52:28;3.60;;;1.60;;
16975;SDS011;8604;48.148;-1.786;2023-07-29T10:55:24;2.35;;;1.60;;
16975;SDS011;8604;48.148;-1.786;2023-07-29T10:58:04;4.85;;;1.70;;
16975;SDS011;8604;48.148;-1.786;2023-07-29T11:00:38;2.45;;;1.60;;
16975;SDS011;8604;48.148;-1.786;2023-07-29T11:03:08;2.28;;;1.55;;
16975;SDS011;8604;48.148;-1.786;2023-07-29T11:05:47;3.00;;;1.60;;
16975;SDS011;8604;48.148;-1.786;2023-07-29T11:08:20;3.38;;;1.70;;
16975;SDS011;8604;48.148;-1.786;2023-07-29T11:10:58;3.08;;;1.67;;
16975;SDS011;8604;48.148;-1.786;2023-07-29T11:13:39;3.15;;;1.60;;
16975;SDS011;8604;48.148;-1.786;2023-07-29T11:16:09;2.22;;;1.45;;
16975;SDS011;8604;48.148;-1.786;2023-07-29T11:18:45;3.03;;;1.67;;
16975;SDS011;8604;48.148;-1.786;2023-07-29T11:21:15;3.67;;;1.58;;
16975;SDS011;8604;48.148;-1.786;2023-07-29T11:23:44;4.05;;;1.75;;
16975;SDS011;8604;48.148;-1.786;2023-07-29T11:26:13;3.28;;;1.67;;
16975;SDS011;8604;48.148;-1.786;2023-07-29T11:28:42;4.57;;;1.65;;
16975;SDS011;8604;48.148;-1.786;2023-07-29T11:31:10;2.50;;;1.50;;
16975;SDS011;8604;48.148;-1.786;2023-07-29T11:33:39;3.58;;;1.40;;
16975;SDS011;8604;48.148;-1.786;2023-07-29T11:36:18;3.35;;;1.60;;
16975;SDS011;8604;48.148;-1.786;2023-07-29T11:38:47;3.38;;;1.42;;
16975;SDS011;8604;48.148;-1.786;2023-07-29T11:41:18;4.50;;;1.80;;
16975;SDS011;8604;48.148;-1.786;2023-07-29T11:43:48;2.95;;;1.40;;
16975;SDS011;8604;48.148;-1.786;2023-07-29T11:46:20;4.05;;;1.60;;
16975;SDS011;8604;48.148;-1.786;2023-07-29T11:48:50;3.67;;;1.67;;
16975;SDS011;8604;48.148;-1.786;2023-07-29T11:51:19;2.55;;;1.50;;
16975;SDS011;8604;48.148;-1.786;2023-07-29T11:53:49;2.65;;;1.60;;
16975;SDS011;8604;48.148;-1.786;2023-07-29T11:56:19;3.00;;;1.60;;
16975;SDS011;8604;48.148;-1.786;2023-07-29T11:58:47;3.05;;;1.50;;
16975;SDS011;8604;48.148;-1.786;2023-07-29T12:01:17;2.80;;;1.50;;
16975;SDS011;8604;48.148;-1.786;2023-07-29T12:03:45;2.90;;;1.60;;
16975;SDS011;8604;48.148;-1.786;2023-07-29T12:06:14;3.40;;;1.60;;
16975;SDS011;8604;48.148;-1.786;2023-07-29T12:08:44;3.22;;;1.80;;
16975;SDS011;8604;48.148;-1.786;2023-07-29T12:11:13;5.32;;;1.73;;
16975;SDS011;8604;48.148;-1.786;2023-07-29T12:13:43;3.72;;;1.60;;
16975;SDS011;8604;48.148;-1.786;2023-07-29T12:16:16;4.97;;;1.75;;
16975;SDS011;8604;48.148;-1.786;2023-07-29T12:18:45;5.88;;;1.58;;
16975;SDS011;8604;48.148;-1.786;2023-07-29T12:21:15;3.95;;;1.50;;
16975;SDS011;8604;48.148;-1.786;2023-07-29T12:23:46;3.35;;;1.33;;
16975;SDS011;8604;48.148;-1.786;2023-07-29T12:26:14;4.05;;;1.70;;
16975;SDS011;8604;48.148;-1.786;2023-07-29T12:28:45;3.40;;;1.50;;
16975;SDS011;8604;48.148;-1.786;2023-07-29T12:31:14;2.15;;;1.40;;
16975;SDS011;8604;48.148;-1.786;2023-07-29T12:33:42;4.50;;;1.50;;
16975;SDS011;8604;48.148;-1.786;2023-07-29T12:36:11;4.90;;;1.60;;
16975;SDS011;8604;48.148;-1.786;2023-07-29T12:38:42;2.13;;;1.40;;
16975;SDS011;8604;48.148;-1.786;2023-07-29T12:41:12;3.30;;;1.77;;
16975;SDS011;8604;48.148;-1.786;2023-07-29T12:43:41;5.70;;;1.63;;
16975;SDS011;8604;48.148;-1.786;2023-07-29T12:46:09;3.53;;;1.70;;
16975;SDS011;8604;48.148;-1.786;2023-07-29T12:48:38;3.20;;;1.60;;
16975;SDS011;8604;48.148;-1.786;2023-07-29T12:51:07;4.05;;;1.50;;
16975;SDS011;8604;48.148;-1.786;2023-07-29T12:53:36;3.67;;;1.65;;
16975;SDS011;8604;48.148;-1.786;2023-07-29T12:56:05;2.83;;;1.35;;
16975;SDS011;8604;48.148;-1.786;2023-07-29T12:58:35;3.17;;;1.45;;
16975;SDS011;8604;48.148;-1.786;2023-07-29T13:01:04;5.13;;;1.98;;
16975;SDS011;8604;48.148;-1.786;2023-07-29T13:03:32;3.67;;;1.77;;
16975;SDS011;8604;48.148;-1.786;2023-07-29T13:06:01;3.50;;;1.60;;
16975;SDS011;8604;48.148;-1.786;2023-07-29T13:08:30;3.47;;;1.63;;
16975;SDS011;8604;48.148;-1.786;2023-07-29T13:10:58;4.03;;;1.80;;
16975;SDS011;8604;48.148;-1.786;2023-07-29T13:13:27;3.38;;;1.50;;
16975;SDS011;8604;48.148;-1.786;2023-07-29T13:15:57;4.13;;;1.70;;
16975;SDS011;8604;48.148;-1.786;2023-07-29T13:18:28;4.10;;;1.77;;
16975;SDS011;8604;48.148;-1.786;2023-07-29T13:20:56;3.22;;;1.55;;
16975;SDS011;8604;48.148;-1.786;2023-07-29T13:23:26;3.20;;;1.48;;
16975;SDS011;8604;48.148;-1.786;2023-07-29T13:25:56;5.72;;;1.70;;
16975;SDS011;8604;48.148;-1.786;2023-07-29T13:28:25;3.83;;;1.60;;
16975;SDS011;8604;48.148;-1.786;2023-07-29T13:30:53;4.50;;;1.70;;
16975;SDS011;8604;48.148;-1.786;2023-07-29T13:33:23;4.18;;;1.70;;
16975;SDS011;8604;48.148;-1.786;2023-07-29T13:35:51;5.50;;;1.80;;
16975;SDS011;8604;48.148;-1.786;2023-07-29T13:38:20;2.88;;;1.45;;
16975;SDS011;8604;48.148;-1.786;2023-07-29T13:40:48;3.67;;;1.55;;
16975;SDS011;8604;48.148;-1.786;2023-07-29T13:43:17;2.35;;;1.60;;
16975;SDS011;8604;48.148;-1.786;2023-07-29T13:45:46;4.53;;;1.63;;
16975;SDS011;8604;48.148;-1.786;2023-07-29T13:48:17;7.43;;;1.80;;
16975;SDS011;8604;48.148;-1.786;2023-07-29T13:50:47;9.75;;;1.58;;
16975;SDS011;8604;48.148;-1.786;2023-07-29T13:53:15;2.40;;;1.48;;
16975;SDS011;8604;48.148;-1.786;2023-07-29T13:55:44;2.65;;;1.50;;
16975;SDS011;8604;48.148;-1.786;2023-07-29T13:58:13;3.67;;;1.50;;
16975;SDS011;8604;48.148;-1.786;2023-07-29T14:00:41;3.33;;;1.38;;
16975;SDS011;8604;48.148;-1.786;2023-07-29T14:03:10;3.22;;;1.40;;
16975;SDS011;8604;48.148;-1.786;2023-07-29T14:05:39;3.35;;;1.23;;
16975;SDS011;8604;48.148;-1.786;2023-07-29T14:08:09;4.55;;;1.45;;
16975;SDS011;8604;48.148;-1.786;2023-07-29T14:10:37;3.47;;;1.63;;
16975;SDS011;8604;48.148;-1.786;2023-07-29T14:13:06;3.67;;;1.50;;
16975;SDS011;8604;48.148;-1.786;2023-07-29T14:15:34;3.05;;;1.65;;
16975;SDS011;8604;48.148;-1.786;2023-07-29T14:18:03;2.03;;;1.38;;
16975;SDS011;8604;48.148;-1.786;2023-07-29T14:20:31;3.60;;;1.40;;
16975;SDS011;8604;48.148;-1.786;2023-07-29T14:23:00;4.50;;;1.50;;
16975;SDS011;8604;48.148;-1.786;2023-07-29T14:25:30;2.72;;;1.80;;
16975;SDS011;8604;48.148;-1.786;2023-07-29T14:27:58;5.22;;;1.48;;
16975;SDS011;8604;48.148;-1.786;2023-07-29T14:30:27;2.78;;;1.67;;
16975;SDS011;8604;48.148;-1.786;2023-07-29T14:32:55;3.47;;;1.35;;
16975;SDS011;8604;48.148;-1.786;2023-07-29T14:35:24;4.00;;;1.52;;
16975;SDS011;8604;48.148;-1.786;2023-07-29T14:37:52;2.88;;;1.50;;
16975;SDS011;8604;48.148;-1.786;2023-07-29T14:40:21;3.95;;;1.40;;
16975;SDS011;8604;48.148;-1.786;2023-07-29T14:42:50;3.15;;;1.50;;
16975;SDS011;8604;48.148;-1.786;2023-07-29T14:45:19;4.18;;;1.70;;
16975;SDS011;8604;48.148;-1.786;2023-07-29T14:47:47;5.20;;;1.80;;
16975;SDS011;8604;48.148;-1.786;2023-07-29T14:50:16;3.83;;;1.75;;
16975;SDS011;8604;48.148;-1.786;2023-07-29T14:52:44;4.72;;;2.13;;
16975;SDS011;8604;48.148;-1.786;2023-07-29T14:55:13;4.63;;;1.67;;
16975;SDS011;8604;48.148;-1.786;2023-07-29T14:57:41;5.20;;;1.95;;
16975;SDS011;8604;48.148;-1.786;2023-07-29T15:00:12;4.47;;;1.80;;
16975;SDS011;8604;48.148;-1.786;2023-07-29T15:02:40;4.78;;;1.90;;
16975;SDS011;8604;48.148;-1.786;2023-07-29T15:05:09;3.60;;;1.65;;
16975;SDS011;8604;48.148;-1.786;2023-07-29T15:07:37;2.78;;;1.55;;
16975;SDS011;8604;48.148;-1.786;2023-07-29T15:10:06;3.20;;;1.80;;
16975;SDS011;8604;48.148;-1.786;2023-07-29T15:12:35;4.67;;;1.70;;
16975;SDS011;8604;48.148;-1.786;2023-07-29T15:15:04;7.37;;;1.70;;
16975;SDS011;8604;48.148;-1.786;2023-07-29T15:17:35;4.77;;;1.50;;
16975;SDS011;8604;48.148;-1.786;2023-07-29T15:20:04;2.67;;;1.37;;
16975;SDS011;8604;48.148;-1.786;2023-07-29T15:22:33;4.00;;;1.50;;
16975;SDS011;8604;48.148;-1.786;2023-07-29T15:25:01;4.53;;;1.63;;
16975;SDS011;8604;48.148;-1.786;2023-07-29T15:27:30;2.50;;;1.47;;
16975;SDS011;8604;48.148;-1.786;2023-07-29T15:29:58;8.10;;;2.30;;
16975;SDS011;8604;48.148;-1.786;2023-07-29T15:32:27;5.63;;;2.40;;
16975;SDS011;8604;48.148;-1.786;2023-07-29T15:34:57;6.03;;;2.57;;
16975;SDS011;8604;48.148;-1.786;2023-07-29T15:37:25;6.57;;;2.70;;
16975;SDS011;8604;48.148;-1.786;2023-07-29T15:39:54;7.83;;;3.00;;